Time;durP1;ratioP1;P1;durP2;ratioP2;P2;SDS_P1;SDS_P2;PMS_P1;PMS_P2;Temp;Humidity;BMP_temperature;BMP_pressure;BME280_temperature;BME280_humidity;BME280_pressure;Samples;Min_cycle;Max_cycle;Signal;HPM_P1;HPM_P2
2023/10/04 00:00:20;;;;;;;2.60;1.30;;;11.40;99.90;;;;;;5018988;28;20185;-64
2023/10/04 00:02:54;;;;;;;3.23;1.63;;;11.40;99.90;;;;;;5017731;28;20409;-64
2023/10/04 00:05:21;;;;;;;3.53;1.20;;;11.40;99.90;;;;;;5021192;28;20425;-64
2023/10/04 00:07:51;;;;;;;3.60;1.67;;;11.30;99.90;;;;;;5017551;28;20425;-64
2023/10/04 00:10:18;;;;;;;3.30;1.73;;;11.30;99.90;;;;;;5021202;28;20882;-64
2023/10/04 00:12:45;;;;;;;3.43;1.30;;;11.30;99.90;;;;;;5022032;28;20433;-64
2023/10/04 00:15:14;;;;;;;3.10;1.33;;;11.30;99.90;;;;;;5022426;28;20449;-64
2023/10/04 00:17:42;;;;;;;2.23;1.23;;;11.20;99.90;;;;;;5021434;28;20524;-64
2023/10/04 00:20:10;;;;;;;2.33;1.50;;;11.20;99.90;;;;;;5021506;28;20545;-64
2023/10/04 00:22:36;;;;;;;10.50;1.80;;;11.10;99.90;;;;;;5022915;28;20421;-64
2023/10/04 00:25:04;;;;;;;4.00;1.30;;;11.00;99.90;;;;;;5019887;28;20968;-64
2023/10/04 00:27:30;;;;;;;3.23;1.07;;;11.00;99.90;;;;;;5019491;28;20422;-64
2023/10/04 00:29:56;;;;;;;3.63;1.70;;;11.00;99.90;;;;;;5019305;28;20461;-64
2023/10/04 00:32:22;;;;;;;8.30;2.40;;;10.90;99.90;;;;;;5022805;28;20420;-64
2023/10/04 00:34:48;;;;;;;5.93;2.40;;;10.90;99.90;;;;;;5018562;28;20190;-64
2023/10/04 00:37:15;;;;;;;7.20;2.13;;;10.90;99.90;;;;;;5023560;28;20984;-64
2023/10/04 00:39:41;;;;;;;4.17;1.50;;;10.90;99.90;;;;;;5020392;28;20237;-64
2023/10/04 00:42:07;;;;;;;3.37;1.60;;;11.10;99.90;;;;;;5023355;28;20446;-64
2023/10/04 00:44:35;;;;;;;4.70;1.50;;;11.00;99.90;;;;;;5015397;28;20194;-65
2023/10/04 00:47:07;;;;;;;5.03;2.00;;;11.00;99.90;;;;;;5014588;28;20560;-64
2023/10/04 00:49:34;;;;;;;5.10;1.50;;;11.00;99.90;;;;;;5018961;28;20479;-64
2023/10/04 00:52:02;;;;;;;3.50;1.70;;;10.90;99.90;;;;;;5032419;28;20417;-64
2023/10/04 00:54:29;;;;;;;5.60;1.77;;;10.90;99.90;;;;;;5021988;28;20797;-64
2023/10/04 00:56:55;;;;;;;5.60;1.80;;;10.90;99.90;;;;;;5029062;28;20733;-64
2023/10/04 00:59:21;;;;;;;5.40;1.40;;;10.90;99.90;;;;;;5021596;28;20436;-64
2023/10/04 01:01:48;;;;;;;6.17;1.97;;;10.90;99.90;;;;;;5025934;28;20417;-64
2023/10/04 01:04:14;;;;;;;1.80;1.00;;;10.80;99.90;;;;;;5016191;28;20194;-64
2023/10/04 01:06:40;;;;;;;4.00;1.87;;;10.70;99.90;;;;;;5028658;28;20425;-64
2023/10/04 01:09:06;;;;;;;2.63;1.27;;;10.80;99.90;;;;;;5017341;28;20720;-64
2023/10/04 01:11:45;;;;;;;5.23;1.57;;;10.70;99.90;;;;;;5024533;28;20437;-64
2023/10/04 01:14:23;;;;;;;6.00;1.90;;;10.70;99.90;;;;;;5015557;28;20190;-65
2023/10/04 01:16:51;;;;;;;2.50;1.50;;;10.70;99.90;;;;;;5024737;28;20417;-64
2023/10/04 01:19:17;;;;;;;4.50;1.60;;;10.70;99.90;;;;;;5018574;28;20474;-64
2023/10/04 01:21:43;;;;;;;4.80;1.80;;;10.60;99.90;;;;;;5022749;28;20449;-64
2023/10/04 01:24:09;;;;;;;11.23;2.30;;;10.50;99.90;;;;;;5015043;28;20210;-66
2023/10/04 01:26:37;;;;;;;3.03;1.30;;;10.70;99.90;;;;;;5022194;28;20560;-66
2023/10/04 01:29:11;;;;;;;7.07;1.47;;;10.30;99.90;;;;;;5015103;28;20956;-66
2023/10/04 01:31:40;;;;;;;3.50;1.53;;;10.20;99.90;;;;;;5028489;28;20889;-66
2023/10/04 01:34:13;;;;;;;3.50;1.17;;;10.20;99.90;;;;;;5017166;28;20452;-66
2023/10/04 01:36:38;;;;;;;4.13;2.23;;;10.20;99.90;;;;;;5023808;28;20867;-66
2023/10/04 01:39:07;;;;;;;5.00;1.50;;;10.20;99.90;;;;;;5031474;28;20427;-66
2023/10/04 01:41:39;;;;;;;3.37;1.53;;;10.30;99.90;;;;;;5024080;28;20180;-66
2023/10/04 01:44:09;;;;;;;3.70;1.30;;;10.30;99.90;;;;;;5023885;28;20929;-66
2023/10/04 01:46:38;;;;;;;5.53;1.70;;;10.30;99.90;;;;;;5021345;28;20485;-66
2023/10/04 01:49:09;;;;;;;3.00;1.07;;;10.40;99.90;;;;;;5015221;28;20418;-66
2023/10/04 01:51:35;;;;;;;3.67;1.80;;;10.40;99.90;;;;;;5021392;28;20435;-66
2023/10/04 01:54:00;;;;;;;3.23;1.73;;;10.50;99.90;;;;;;5016820;28;20876;-66
2023/10/04 01:56:26;;;;;;;4.30;1.60;;;10.60;99.90;;;;;;5031476;28;20201;-66
2023/10/04 01:58:54;;;;;;;4.70;2.03;;;10.60;99.90;;;;;;5020358;28;20620;-66
2023/10/04 02:01:20;;;;;;;4.27;1.57;;;10.70;99.90;;;;;;5025622;28;20420;-66
2023/10/04 02:03:45;;;;;;;5.40;2.33;;;10.70;99.90;;;;;;5015855;28;20421;-66
2023/10/04 02:06:11;;;;;;;3.50;2.10;;;10.60;99.90;;;;;;5026900;28;20276;-66
2023/10/04 02:08:37;;;;;;;2.90;2.10;;;10.60;99.90;;;;;;5015424;28;20699;-66
2023/10/04 02:11:06;;;;;;;6.20;2.67;;;10.60;99.90;;;;;;5024225;28;20210;-66
2023/10/04 02:13:32;;;;;;;4.63;2.03;;;10.50;99.90;;;;;;5016265;28;20991;-66
2023/10/04 02:15:59;;;;;;;3.77;2.00;;;10.40;99.90;;;;;;5020380;28;20520;-66
2023/10/04 02:18:25;;;;;;;3.60;1.40;;;10.40;99.90;;;;;;5017033;28;20925;-66
2023/10/04 02:20:53;;;;;;;3.03;1.50;;;10.30;99.90;;;;;;5023911;28;20425;-66
2023/10/04 02:23:18;;;;;;;6.00;1.90;;;10.30;99.90;;;;;;5017762;28;20418;-66
2023/10/04 02:25:47;;;;;;;2.87;1.50;;;10.20;99.90;;;;;;5016709;28;20472;-66
2023/10/04 02:28:18;;;;;;;3.70;1.27;;;10.20;99.90;;;;;;5016960;28;20190;-66
2023/10/04 02:30:47;;;;;;;2.50;1.80;;;10.20;99.90;;;;;;5014993;28;20512;-66
2023/10/04 02:33:13;;;;;;;4.47;1.83;;;10.20;99.90;;;;;;5016084;28;20418;-66
2023/10/04 02:35:44;;;;;;;2.93;1.40;;;10.10;99.90;;;;;;5022386;28;20464;-66
2023/10/04 02:38:16;;;;;;;3.13;1.67;;;10.00;99.90;;;;;;5011784;28;20442;-66
2023/10/04 02:40:45;;;;;;;3.93;1.20;;;10.00;99.90;;;;;;5026316;28;20425;-66
2023/10/04 02:43:11;;;;;;;3.17;1.70;;;10.00;99.90;;;;;;5014079;28;20747;-66
2023/10/04 02:45:37;;;;;;;2.33;0.90;;;10.10;99.90;;;;;;5022211;28;20432;-66
2023/10/04 02:48:09;;;;;;;4.17;1.57;;;10.10;99.90;;;;;;5013247;28;20187;-66
2023/10/04 02:50:35;;;;;;;4.50;1.67;;;10.10;99.90;;;;;;5016477;28;20841;-66
2023/10/04 02:53:00;;;;;;;4.47;1.80;;;10.10;99.90;;;;;;5021609;28;20454;-66
2023/10/04 02:55:26;;;;;;;1.93;1.00;;;10.10;99.90;;;;;;5023618;28;20203;-66
2023/10/04 02:57:52;;;;;;;2.77;1.27;;;10.00;99.90;;;;;;5019735;28;20187;-66
2023/10/04 03:00:19;;;;;;;3.17;1.20;;;10.00;99.90;;;;;;5025331;28;20436;-66
2023/10/04 03:02:50;;;;;;;3.77;1.53;;;9.90;99.90;;;;;;5019214;28;20187;-66
2023/10/04 03:05:20;;;;;;;6.87;1.70;;;9.90;99.90;;;;;;5022331;28;20525;-66
2023/10/04 03:07:50;;;;;;;5.60;1.73;;;9.80;99.90;;;;;;5020580;28;20484;-66
2023/10/04 03:10:27;;;;;;;3.53;1.40;;;9.70;99.90;;;;;;5019818;28;20465;-66
2023/10/04 03:12:56;;;;;;;2.60;1.03;;;9.70;99.90;;;;;;5019208;28;20512;-66
2023/10/04 03:15:23;;;;;;;3.80;1.60;;;9.70;99.90;;;;;;5017033;28;20462;-66
2023/10/04 03:17:53;;;;;;;4.43;1.70;;;9.70;99.90;;;;;;5018441;28;20821;-66
2023/10/04 03:20:20;;;;;;;3.97;1.60;;;9.60;99.90;;;;;;5016033;28;20434;-66
2023/10/04 03:22:50;;;;;;;3.33;1.27;;;9.60;99.90;;;;;;5018167;28;20806;-66
2023/10/04 03:25:17;;;;;;;4.80;1.30;;;9.60;99.90;;;;;;5014595;28;20985;-66
2023/10/04 03:27:44;;;;;;;3.73;1.60;;;9.50;99.90;;;;;;5016971;28;20430;-66
2023/10/04 03:30:14;;;;;;;4.47;2.47;;;9.50;99.90;;;;;;5013958;28;20477;-66
2023/10/04 03:32:45;;;;;;;6.10;2.20;;;9.40;99.90;;;;;;5015645;28;20453;-68
2023/10/04 03:35:14;;;;;;;13.30;4.63;;;9.40;99.90;;;;;;5017815;28;20764;-66
2023/10/04 03:37:48;;;;;;;9.40;2.93;;;9.40;99.90;;;;;;5017392;28;20457;-66
2023/10/04 03:40:15;;;;;;;3.53;1.70;;;9.40;99.90;;;;;;5021595;28;20459;-67
2023/10/04 03:42:41;;;;;;;4.87;1.33;;;9.50;99.90;;;;;;5017099;28;20418;-67
2023/10/04 03:45:10;;;;;;;2.10;1.07;;;9.40;99.90;;;;;;5017122;28;20701;-67
2023/10/04 03:47:38;;;;;;;4.03;0.87;;;9.40;99.90;;;;;;5015543;28;20414;-67
2023/10/04 03:50:06;;;;;;;4.93;1.50;;;12.50;99.90;;;;;;5015437;28;20602;-67
2023/10/04 03:52:33;;;;;;;3.30;1.23;;;9.30;99.90;;;;;;5013449;28;20481;-66
2023/10/04 03:54:59;;;;;;;4.73;1.53;;;9.30;99.90;;;;;;5018843;28;20576;-67
2023/10/04 03:57:24;;;;;;;4.67;1.47;;;9.40;99.90;;;;;;5022253;28;20946;-65
2023/10/04 03:59:51;;;;;;;5.27;1.20;;;9.30;99.90;;;;;;5020514;28;20193;-65
2023/10/04 04:02:19;;;;;;;2.33;1.37;;;9.30;99.90;;;;;;5021987;28;20179;-64
2023/10/04 04:04:45;;;;;;;2.90;1.23;;;9.40;99.90;;;;;;5016780;28;20983;-64
2023/10/04 04:07:11;;;;;;;5.00;1.97;;;9.40;99.90;;;;;;5022096;28;20742;-64
2023/10/04 04:09:36;;;;;;;10.13;1.80;;;9.40;99.90;;;;;;5014908;28;20500;-64
2023/10/04 04:12:03;;;;;;;6.83;1.17;;;9.40;99.90;;;;;;5022679;28;20179;-66
2023/10/04 04:14:30;;;;;;;3.30;1.50;;;9.40;99.90;;;;;;5014321;28;20175;-65
2023/10/04 04:16:56;;;;;;;7.13;1.33;;;9.30;99.90;;;;;;5022138;28;20426;-65
2023/10/04 04:19:26;;;;;;;2.67;1.30;;;9.20;99.90;;;;;;5013193;28;20441;-65
2023/10/04 04:21:52;;;;;;;6.63;1.70;;;9.20;99.90;;;;;;5020365;28;20189;-65
2023/10/04 04:24:17;;;;;;;3.80;1.30;;;9.10;99.90;;;;;;5012691;28;20442;-65
2023/10/04 04:26:43;;;;;;;2.73;1.37;;;9.10;99.90;;;;;;5019900;28;20194;-65
2023/10/04 04:29:09;;;;;;;4.53;1.50;;;9.00;99.90;;;;;;5011169;28;20227;-65
2023/10/04 04:31:36;;;;;;;4.70;1.20;;;9.00;99.90;;;;;;5018589;28;20648;-65
2023/10/04 04:34:03;;;;;;;4.13;1.30;;;8.90;99.90;;;;;;5011254;28;20426;-65
2023/10/04 04:36:32;;;;;;;2.17;1.07;;;8.90;99.90;;;;;;5023037;28;20885;-65
2023/10/04 04:38:58;;;;;;;8.77;1.90;;;8.90;99.90;;;;;;5015191;28;20459;-65
2023/10/04 04:41:25;;;;;;;3.40;1.80;;;8.90;99.90;;;;;;5022013;28;21139;-65
2023/10/04 04:43:55;;;;;;;5.80;1.43;;;8.90;99.90;;;;;;5010538;28;20190;-64
2023/10/04 04:46:22;;;;;;;3.07;1.40;;;8.90;99.90;;;;;;5021834;28;20430;-64
2023/10/04 04:48:48;;;;;;;2.90;1.00;;;8.90;99.90;;;;;;5010474;28;20793;-64
2023/10/04 04:51:15;;;;;;;1.50;0.90;;;8.80;99.90;;;;;;5014500;28;20476;-64
2023/10/04 04:53:45;;;;;;;4.33;1.70;;;8.80;99.90;;;;;;5012701;28;20422;-64
2023/10/04 04:56:13;;;;;;;2.90;1.40;;;8.70;99.90;;;;;;5028290;28;20456;-65
2023/10/04 04:58:49;;;;;;;4.20;2.17;;;8.80;99.90;;;;;;5021837;28;20464;-64
2023/10/04 05:01:15;;;;;;;4.67;1.80;;;8.80;99.90;;;;;;5029169;28;20420;-64
2023/10/04 05:03:43;;;;;;;2.93;1.23;;;8.80;99.90;;;;;;5016653;28;20434;-64
2023/10/04 05:06:21;;;;;;;4.37;1.53;;;8.70;99.90;;;;;;5027534;28;20417;-65
2023/10/04 05:08:46;;;;;;;2.93;1.20;;;8.70;99.90;;;;;;5016719;28;20437;-64
2023/10/04 05:11:12;;;;;;;2.90;1.40;;;8.70;99.90;;;;;;5024108;28;20956;-64
2023/10/04 05:13:39;;;;;;;6.10;1.23;;;8.70;99.90;;;;;;5016727;28;20617;-64
2023/10/04 05:16:04;;;;;;;8.43;1.50;;;8.60;99.90;;;;;;5023842;28;20782;-64
2023/10/04 05:18:30;;;;;;;15.60;4.83;;;8.50;99.90;;;;;;5017585;28;20426;-64
2023/10/04 05:20:56;;;;;;;7.47;4.10;;;8.50;99.90;;;;;;5022275;28;20191;-64
2023/10/04 05:23:24;;;;;;;5.07;2.30;;;8.40;99.90;;;;;;5022016;28;20182;-64
2023/10/04 05:25:52;;;;;;;6.43;2.07;;;8.40;99.90;;;;;;5019796;28;20206;-64
2023/10/04 05:28:18;;;;;;;3.97;1.43;;;8.40;99.90;;;;;;5021557;28;20834;-64
2023/10/04 05:30:45;;;;;;;3.17;1.67;;;8.40;99.90;;;;;;5020504;28;20461;-64
2023/10/04 05:33:15;;;;;;;2.63;1.13;;;8.40;99.90;;;;;;5014518;28;20714;-64
2023/10/04 05:35:45;;;;;;;5.50;1.47;;;8.40;99.90;;;;;;5024408;28;20925;-64
2023/10/04 05:38:12;;;;;;;5.10;1.80;;;8.50;99.90;;;;;;5013835;28;20754;-64
2023/10/04 05:40:41;;;;;;;3.30;1.80;;;8.40;99.90;;;;;;5026968;28;20898;-64
2023/10/04 05:43:06;;;;;;;4.00;2.30;;;8.40;99.90;;;;;;5013322;28;20421;-64
2023/10/04 05:45:32;;;;;;;6.30;1.83;;;8.40;99.90;;;;;;5021084;28;20433;-65
2023/10/04 05:47:59;;;;;;;4.60;1.40;;;8.40;99.90;;;;;;5018166;28;20180;-64
2023/10/04 05:50:26;;;;;;;2.53;1.40;;;8.40;99.90;;;;;;5023447;28;20469;-64
2023/10/04 05:52:53;;;;;;;4.23;2.27;;;8.50;99.90;;;;;;5020694;28;20458;-64
2023/10/04 05:55:21;;;;;;;5.40;2.50;;;8.30;99.90;;;;;;5021514;28;20824;-64
2023/10/04 05:57:50;;;;;;;2.90;1.27;;;8.80;99.90;;;;;;5017248;28;20796;-64
2023/10/04 06:03:07;;;;;;;3.70;1.97;;;8.20;99.90;;;;;;5024403;28;20464;-64
2023/10/04 06:05:35;;;;;;;3.60;2.07;;;8.30;99.90;;;;;;5021521;28;20432;-64
2023/10/04 06:08:05;;;;;;;4.73;2.47;;;8.40;99.90;;;;;;5024165;28;20428;-64
2023/10/04 06:10:31;;;;;;;5.60;1.90;;;8.50;99.90;;;;;;5019721;28;20473;-65
2023/10/04 06:12:57;;;;;;;4.10;2.03;;;8.50;99.90;;;;;;5018867;28;20935;-65
2023/10/04 06:15:24;;;;;;;4.90;2.30;;;8.60;99.90;;;;;;5019570;28;20434;-65
2023/10/04 06:17:51;;;;;;;3.60;1.70;;;8.70;99.90;;;;;;5014223;28;20198;-65
2023/10/04 06:20:24;;;;;;;6.00;2.50;;;8.70;99.90;;;;;;5018369;28;20487;-65
2023/10/04 06:22:51;;;;;;;3.20;1.50;;;8.60;99.90;;;;;;5017977;28;20532;-65
2023/10/04 06:25:18;;;;;;;3.47;1.53;;;8.70;99.90;;;;;;5022712;28;20811;-65
2023/10/04 06:27:44;;;;;;;4.13;1.90;;;8.80;99.90;;;;;;5021282;28;21257;-65
2023/10/04 06:30:12;;;;;;;2.50;1.27;;;8.80;99.90;;;;;;5023091;28;20469;-65
2023/10/04 06:32:38;;;;;;;2.60;1.20;;;8.90;99.90;;;;;;5022118;28;20190;-64
2023/10/04 06:35:06;;;;;;;2.87;1.87;;;9.00;99.90;;;;;;5020654;28;20425;-65
2023/10/04 06:37:32;;;;;;;10.40;1.70;;;9.00;99.90;;;;;;5019452;28;20540;-65
2023/10/04 06:39:57;;;;;;;7.97;1.40;;;9.10;99.90;;;;;;5026137;28;20531;-65
2023/10/04 06:42:23;;;;;;;3.40;1.70;;;9.20;99.90;;;;;;5018855;28;20546;-65
2023/10/04 06:44:49;;;;;;;4.43;2.23;;;9.30;99.90;;;;;;5014794;28;20233;-65
2023/10/04 06:47:15;;;;;;;3.60;2.07;;;9.30;99.90;;;;;;5018243;28;20229;-65
2023/10/04 06:49:41;;;;;;;4.03;2.20;;;10.80;99.90;;;;;;5018622;28;20461;-65
2023/10/04 06:52:07;;;;;;;3.60;1.93;;;9.40;99.90;;;;;;5020419;28;20779;-65
2023/10/04 06:54:33;;;;;;;5.40;2.03;;;11.00;99.90;;;;;;5017956;28;20175;-65
2023/10/04 06:56:59;;;;;;;5.77;2.20;;;9.50;99.90;;;;;;5026853;28;20888;-65
2023/10/04 06:59:25;;;;;;;3.30;1.73;;;9.60;99.90;;;;;;5020438;28;20521;-65
2023/10/04 07:01:51;;;;;;;10.80;2.20;;;9.80;99.90;;;;;;5026742;28;20193;-65
2023/10/04 07:04:17;;;;;;;3.13;1.90;;;10.90;99.90;;;;;;5013952;28;20562;-64
2023/10/04 07:06:43;;;;;;;4.20;1.70;;;10.20;99.90;;;;;;5024262;28;20486;-64
2023/10/04 07:09:10;;;;;;;3.33;1.90;;;11.20;99.90;;;;;;5016568;28;20437;-65
2023/10/04 07:11:36;;;;;;;4.33;1.60;;;11.70;99.90;;;;;;5027432;28;20428;-65
2023/10/04 07:14:04;;;;;;;3.00;1.50;;;10.60;99.90;;;;;;5018974;28;20474;-65
2023/10/04 07:16:30;;;;;;;4.47;1.43;;;11.70;99.90;;;;;;5021769;28;20933;-65
2023/10/04 07:18:57;;;;;;;3.10;1.23;;;10.90;99.90;;;;;;5016180;28;20567;-65
2023/10/04 07:21:23;;;;;;;3.60;1.40;;;11.20;99.90;;;;;;5028018;28;20524;-65
2023/10/04 07:23:48;;;;;;;3.90;1.67;;;12.30;99.90;;;;;;5016749;28;20504;-64
2023/10/04 07:26:14;;;;;;;4.10;1.80;;;12.20;99.90;;;;;;5021007;28;20197;-64
2023/10/04 07:28:41;;;;;;;4.70;2.10;;;12.50;99.90;;;;;;5023257;28;20190;-64
2023/10/04 07:31:07;;;;;;;3.93;1.20;;;12.60;99.90;;;;;;5016294;28;20206;-64
2023/10/04 07:33:33;;;;;;;4.57;1.30;;;12.90;99.90;;;;;;5015773;28;20446;-65
2023/10/04 07:35:59;;;;;;;2.80;1.30;;;13.10;99.90;;;;;;5024102;28;20446;-65
2023/10/04 07:38:25;;;;;;;2.57;1.50;;;13.40;99.90;;;;;;5019000;28;20202;-65
2023/10/04 07:40:51;;;;;;;2.27;1.00;;;13.90;99.90;;;;;;5023225;28;20997;-65
2023/10/04 07:43:17;;;;;;;2.80;1.00;;;14.30;99.90;;;;;;5013915;28;20234;-65
2023/10/04 07:45:45;;;;;;;4.23;1.20;;;14.70;99.90;;;;;;5020616;28;20491;-65
2023/10/04 07:48:12;;;;;;;2.63;0.80;;;15.00;99.90;;;;;;5013895;28;20200;-65
2023/10/04 07:50:38;;;;;;;2.73;1.20;;;15.40;99.90;;;;;;5018157;28;20473;-65
2023/10/04 07:53:04;;;;;;;4.50;1.57;;;15.70;99.90;;;;;;5012874;28;20426;-65
2023/10/04 07:55:31;;;;;;;5.53;1.10;;;15.90;99.90;;;;;;5021538;28;20432;-64
2023/10/04 07:58:08;;;;;;;12.37;2.53;;;16.50;99.90;;;;;;5018046;28;20187;-64
2023/10/04 08:00:36;;;;;;;4.50;1.73;;;16.70;99.90;;;;;;5024726;28;20893;-64
2023/10/04 08:03:01;;;;;;;5.10;1.30;;;16.70;99.90;;;;;;5020736;28;20530;-65
2023/10/04 08:05:31;;;;;;;6.77;1.23;;;16.50;99.90;;;;;;5017648;28;20429;-65
2023/10/04 08:07:58;;;;;;;2.07;1.20;;;16.50;99.90;;;;;;5022560;28;20215;-65
2023/10/04 08:10:29;;;;;;;2.70;0.93;;;16.70;99.80;;;;;;5018469;28;20469;-65
2023/10/04 08:12:59;;;;;;;3.63;1.00;;;16.80;99.80;;;;;;5016977;28;20422;-65
2023/10/04 08:15:26;;;;;;;2.47;1.03;;;16.80;99.90;;;;;;5018317;28;20426;-65
2023/10/04 08:17:52;;;;;;;2.50;1.47;;;17.00;99.60;;;;;;5024657;28;20464;-65
2023/10/04 08:20:20;;;;;;;4.40;1.10;;;16.80;99.80;;;;;;5021044;28;20890;-65
2023/10/04 08:22:46;;;;;;;4.17;0.97;;;16.80;99.20;;;;;;5016231;28;20430;-65
2023/10/04 08:25:16;;;;;;;2.70;1.27;;;16.80;99.90;;;;;;5019367;28;20437;-65
2023/10/04 08:27:42;;;;;;;3.17;1.30;;;16.90;98.50;;;;;;5015323;28;20425;-65
2023/10/04 08:30:13;;;;;;;3.03;1.20;;;17.00;98.60;;;;;;5015582;28;20563;-65
2023/10/04 08:32:41;;;;;;;3.87;1.60;;;17.30;97.80;;;;;;5017740;28;20461;-65
2023/10/04 08:35:08;;;;;;;2.17;1.00;;;17.50;97.60;;;;;;5027330;28;20425;-65
2023/10/04 08:37:35;;;;;;;2.10;1.30;;;;;;;;;;5020441;28;20454;-65
2023/10/04 08:40:01;;;;;;;3.67;1.10;;;;;;;;;;5021366;28;20428;-65
2023/10/04 08:42:28;;;;;;;3.57;1.40;;;17.70;97.80;;;;;;5020775;28;20867;-65
2023/10/04 08:44:54;;;;;;;1.90;0.90;;;17.80;97.70;;;;;;5018092;28;20438;-65
2023/10/04 08:47:22;;;;;;;6.13;1.00;;;18.10;97.50;;;;;;5020225;28;20478;-65
2023/10/04 08:49:54;;;;;;;5.33;1.10;;;18.00;97.80;;;;;;5016776;28;20220;-65
2023/10/04 08:52:32;;;;;;;2.33;1.17;;;17.90;97.60;;;;;;5013785;28;20462;-65
2023/10/04 08:55:07;;;;;;;2.20;1.00;;;17.90;96.70;;;;;;5021078;28;20741;-65
2023/10/04 08:57:39;;;;;;;2.80;0.70;;;17.50;97.90;;;;;;5023137;28;20685;-65
2023/10/04 09:00:13;;;;;;;1.90;1.00;;;17.40;97.80;;;;;;5024513;28;20429;-65
2023/10/04 09:02:45;;;;;;;4.13;0.70;;;16.90;97.80;;;;;;5025087;28;20438;-65
2023/10/04 09:05:17;;;;;;;8.10;1.40;;;16.90;98.40;;;;;;5019382;28;20441;-65
2023/10/04 09:07:49;;;;;;;4.60;1.40;;;17.00;98.50;;;;;;5023342;28;20905;-65
2023/10/04 09:10:16;;;;;;;9.30;0.80;;;17.30;97.90;;;;;;5023710;28;20970;-65
2023/10/04 09:12:43;;;;;;;4.00;1.20;;;17.50;96.80;;;;;;5022079;28;20414;-65
2023/10/04 09:15:10;;;;;;;3.60;1.60;;;17.50;97.30;;;;;;5022004;28;20472;-65
2023/10/04 09:17:55;;;;;;;3.80;1.50;;;17.70;96.80;;;;;;5018563;28;20500;-65
2023/10/04 09:20:24;;;;;;;3.20;1.00;;;17.40;97.00;;;;;;5018132;28;20441;-65
2023/10/04 09:22:50;;;;;;;4.57;1.33;;;17.60;96.80;;;;;;5019282;28;20516;-65
2023/10/04 09:25:17;;;;;;;2.47;1.43;;;17.50;96.70;;;;;;5020691;28;20479;-65
2023/10/04 09:27:56;;;;;;;3.50;1.10;;;17.10;97.30;;;;;;5022878;28;20418;-65
2023/10/04 09:30:26;;;;;;;3.80;1.10;;;16.60;96.90;;;;;;5023905;28;20828;-64
2023/10/04 09:32:52;;;;;;;2.33;1.10;;;16.50;98.20;;;;;;5021548;28;20541;-65
2023/10/04 09:35:21;;;;;;;3.33;1.17;;;16.50;98.40;;;;;;5017212;28;20873;-65
2023/10/04 09:37:49;;;;;;;2.87;1.60;;;16.50;97.70;;;;;;5015607;28;20219;-65
2023/10/04 09:40:23;;;;;;;10.73;1.27;;;16.30;98.50;;;;;;5018233;28;20438;-65
2023/10/04 09:42:51;;;;;;;7.90;1.43;;;16.30;99.00;;;;;;5015614;28;20425;-65
2023/10/04 09:45:20;;;;;;;2.03;0.97;;;16.40;98.30;;;;;;5020247;28;20441;-65
2023/10/04 09:47:49;;;;;;;6.20;0.83;;;16.30;98.00;;;;;;5013308;28;20949;-64
2023/10/04 09:50:25;;;;;;;8.40;1.30;;;16.30;97.20;;;;;;5015866;28;20472;-65
2023/10/04 09:52:52;;;;;;;1.87;1.10;;;16.30;98.00;;;;;;5016974;28;20500;-65
2023/10/04 09:55:20;;;;;;;2.80;1.10;;;16.30;98.70;;;;;;5017288;28;20922;-64
2023/10/04 09:57:47;;;;;;;2.60;1.13;;;16.50;97.70;;;;;;5019737;28;20429;-64
2023/10/04 10:00:22;;;;;;;8.93;1.50;;;16.50;98.10;;;;;;5020652;28;20975;-65
2023/10/04 10:02:54;;;;;;;4.63;0.93;;;16.50;96.90;;;;;;5019301;28;20444;-64
2023/10/04 10:05:26;;;;;;;5.10;1.10;;;16.60;97.70;;;;;;5018914;28;20426;-64
2023/10/04 10:07:53;;;;;;;2.13;1.00;;;16.70;96.70;;;;;;5021435;28;20430;-64
2023/10/04 10:10:21;;;;;;;1.53;0.80;;;16.80;97.10;;;;;;5020006;28;20623;-64
2023/10/04 10:12:51;;;;;;;1.67;0.80;;;16.80;98.00;;;;;;5021972;28;20428;-64
2023/10/04 10:15:21;;;;;;;3.70;1.30;;;17.00;97.50;;;;;;5017091;28;20441;-64
2023/10/04 10:17:47;;;;;;;5.67;1.10;;;17.10;96.30;;;;;;5018913;28;20919;-64
2023/10/04 10:20:15;;;;;;;4.93;1.20;;;17.00;96.30;;;;;;5017981;28;20577;-64
2023/10/04 10:22:59;;;;;;;3.20;1.03;;;17.00;97.10;;;;;;5025088;28;20628;-64
2023/10/04 10:25:32;;;;;;;4.00;1.50;;;17.20;97.20;;;;;;5022166;28;20524;-64
2023/10/04 10:28:10;;;;;;;9.23;1.67;;;17.40;96.30;;;;;;5017322;28;20426;-64
2023/10/04 10:30:36;;;;;;;2.37;1.13;;;17.70;96.80;;;;;;5020361;28;20836;-64
2023/10/04 10:33:05;;;;;;;4.60;1.10;;;18.00;95.70;;;;;;5015827;28;20436;-64
2023/10/04 10:35:48;;;;;;;2.20;1.10;;;18.20;95.40;;;;;;5021392;28;20433;-64
2023/10/04 10:38:31;;;;;;;3.10;1.03;;;18.50;96.00;;;;;;5021590;28;20437;-64
2023/10/04 10:40:56;;;;;;;2.07;1.17;;;18.60;94.90;;;;;;5018200;28;20426;-64
2023/10/04 10:43:22;;;;;;;4.67;1.33;;;18.80;94.00;;;;;;5015453;28;20435;-65
2023/10/04 10:45:47;;;;;;;5.57;1.20;;;18.90;93.40;;;;;;5022983;28;20253;-64
2023/10/04 10:48:14;;;;;;;7.60;1.10;;;19.00;93.20;;;;;;5013326;28;20198;-64
2023/10/04 10:50:43;;;;;;;4.63;1.30;;;19.10;93.20;;;;;;5012734;28;20211;-64
2023/10/04 10:53:10;;;;;;;4.57;1.20;;;18.90;92.90;;;;;;5014802;28;20484;-64
2023/10/04 10:55:40;;;;;;;2.47;1.00;;;18.80;93.90;;;;;;5016626;28;20472;-64
2023/10/04 10:58:11;;;;;;;3.97;1.20;;;19.00;94.30;;;;;;5017596;28;20513;-64
2023/10/04 11:00:37;;;;;;;4.40;1.50;;;19.10;92.80;;;;;;5017338;28;20445;-64
2023/10/04 11:03:10;;;;;;;2.63;0.97;;;19.10;92.40;;;;;;5024209;28;20418;-65
2023/10/04 11:05:36;;;;;;;4.80;1.17;;;18.90;92.90;;;;;;5017337;28;20198;-64
2023/10/04 11:08:06;;;;;;;2.30;1.13;;;19.00;92.40;;;;;;5019414;28;20502;-65
2023/10/04 11:10:38;;;;;;;5.87;1.17;;;19.10;92.20;;;;;;5019416;28;20221;-65
2023/10/04 11:13:08;;;;;;;3.27;1.00;;;19.00;91.40;;;;;;5026745;28;20422;-64
2023/10/04 11:15:36;;;;;;;4.33;1.80;;;18.50;92.80;;;;;;5017614;28;20565;-64
2023/10/04 11:18:02;;;;;;;2.37;1.13;;;18.40;92.10;;;;;;5018174;28;20418;-64
2023/10/04 11:20:31;;;;;;;4.30;1.33;;;18.20;92.80;;;;;;5012148;28;20437;-65
2023/10/04 11:22:56;;;;;;;2.30;0.93;;;18.10;92.10;;;;;;5025953;28;20195;-65
2023/10/04 11:25:23;;;;;;;3.43;1.53;;;17.90;92.10;;;;;;5018197;28;20429;-65
2023/10/04 11:27:51;;;;;;;2.23;0.90;;;17.70;92.70;;;;;;5016755;28;20529;-65
2023/10/04 11:30:18;;;;;;;3.27;0.80;;;17.40;93.60;;;;;;5010982;28;20605;-65
2023/10/04 11:32:46;;;;;;;6.37;1.10;;;17.30;93.90;;;;;;5023116;28;20436;-65
2023/10/04 11:35:15;;;;;;;2.07;0.80;;;17.20;93.30;;;;;;5012155;28;20895;-66
2023/10/04 11:37:42;;;;;;;4.37;1.43;;;17.40;93.50;;;;;;5013599;28;20437;-66
2023/10/04 11:40:13;;;;;;;4.73;0.83;;;17.30;93.70;;;;;;5015115;28;20430;-66
2023/10/04 11:42:41;;;;;;;4.70;1.30;;;17.10;93.40;;;;;;5012967;28;20429;-66
2023/10/04 11:45:26;;;;;;;2.30;0.90;;;16.80;93.50;;;;;;5025494;28;20890;-66
2023/10/04 11:47:59;;;;;;;5.83;1.60;;;17.00;93.40;;;;;;5013649;28;20527;-67
2023/10/04 11:50:39;;;;;;;2.80;1.17;;;17.50;93.90;;;;;;5016037;28;20461;-67
2023/10/04 11:53:05;;;;;;;3.13;1.53;;;17.90;93.20;;;;;;5018598;28;20477;-68
2023/10/04 11:55:36;;;;;;;4.60;1.17;;;18.00;91.80;;;;;;5021811;28;20476;-68
2023/10/04 11:58:06;;;;;;;2.50;0.90;;;18.40;91.90;;;;;;5021677;28;20182;-68
2023/10/04 12:00:31;;;;;;;3.50;1.10;;;18.80;91.20;;;;;;5019289;28;20524;-68
2023/10/04 12:02:57;;;;;;;6.80;1.17;;;19.10;90.30;;;;;;5016088;28;20426;-68
2023/10/04 12:05:23;;;;;;;6.40;1.90;;;19.30;90.10;;;;;;5011534;28;20193;-68
2023/10/04 12:07:48;;;;;;;1.80;0.70;;;19.40;90.50;;;;;;5015988;28;20199;-68
2023/10/04 12:10:15;;;;;;;3.23;1.00;;;19.80;87.90;;;;;;5012927;28;20225;-68
2023/10/04 12:12:42;;;;;;;7.37;1.37;;;19.90;88.90;;;;;;5020654;28;20210;-68
2023/10/04 12:15:08;;;;;;;3.37;1.10;;;20.10;87.30;;;;;;5010412;28;20432;-68
2023/10/04 12:17:34;;;;;;;2.23;1.03;;;19.80;84.80;;;;;;5016384;28;20946;-68
2023/10/04 12:20:06;;;;;;;2.63;1.00;;;19.60;85.40;;;;;;5019159;28;20441;-68
2023/10/04 12:22:31;;;;;;;2.50;0.97;;;19.10;86.40;;;;;;5019709;28;20519;-68
2023/10/04 12:24:59;;;;;;;2.00;0.93;;;18.70;88.00;;;;;;5010417;28;20441;-68
2023/10/04 12:27:25;;;;;;;1.57;0.70;;;18.60;87.20;;;;;;5024086;28;20504;-68
2023/10/04 12:29:51;;;;;;;2.20;0.90;;;18.60;87.20;;;;;;5015707;28;20882;-68
2023/10/04 12:32:19;;;;;;;3.47;1.20;;;18.60;87.00;;;;;;5019843;28;20187;-68
2023/10/04 12:34:48;;;;;;;2.70;0.80;;;18.40;88.40;;;;;;5009198;28;20658;-68
2023/10/04 12:37:13;;;;;;;2.30;0.83;;;18.20;90.30;;;;;;5018499;28;20437;-68
2023/10/04 12:39:43;;;;;;;7.17;1.20;;;18.30;90.10;;;;;;5018482;28;20908;-68
2023/10/04 12:42:09;;;;;;;7.77;1.20;;;18.50;90.30;;;;;;5016428;28;20187;-68
2023/10/04 12:44:37;;;;;;;5.30;1.90;;;18.60;90.50;;;;;;5016524;28;20430;-68
2023/10/04 12:47:03;;;;;;;7.40;1.30;;;18.80;90.10;;;;;;5021900;28;20487;-68
2023/10/04 12:49:30;;;;;;;3.60;1.00;;;;;;;;;;5019886;28;20444;-68
2023/10/04 12:51:56;;;;;;;2.53;0.97;;;18.90;89.80;;;;;;5019385;28;20495;-68
2023/10/04 12:54:23;;;;;;;3.10;0.90;;;19.20;89.50;;;;;;5017516;28;20429;-66
2023/10/04 12:56:51;;;;;;;3.17;1.00;;;19.20;89.40;;;;;;5020260;28;20913;-67